LDDULYBE

Guest
Details From LDDU - Dubrovnik
To LYBE - Belgrade
Flight Number -
Tags Generated
Created
Modified
Stats Distance 162 nm / 300 km
Max Altitude 0 ft / 0 m
Waypoints 2
Social Downloads 2
Likes 0
Share VATSIM

Download

Looking for another format? Having issues loading an existing format? Contact us
Advertisement - Login to hide

Notes

Generated

Route

LDDU LYBE

ID Type Via Altitude Latitude Longitude Leg Dist Tot Dist Heading (true) Name
O LDDU APT - 0 ft / 0 m 42.56986˚ 18.24681˚ - 0 nm - -
O LYBE APT - 0 ft / 0 m 44.82652˚ 20.29097˚ 161 nm 161 nm 33° / 34° -

Altitude Profile

Advertisement - Login to hide

Weather


0- 5 10 15 20 25 30 35+ Temperature / ° C

Clouds and Precipitation
Forecast for 2017-12-13 06:00 UTC. Updated 23 minutes ago

Ground ~20,000 ft ~40,000 ft Winds

LDDU

Details ICAO LDDU (DBV)
Name DUBROVNIK
Region Croatia
Timezone Europe/Zagreb (UTC+1.0)
Stats Elevation 527 ft / 161 m (AMSL)
Location 42.562840° 18.264499°
Runways 1
Magnetic Variation 4.100° E

METAR

LDDU 130130Z 13014KT 9999 OVC004 14/14 Q1019

Decode

TAF

TAF LDDU 122325Z 1300/1400 14012KT 9999 SCT015 BKN025 TX14/1300Z TN08/1323Z TEMPO 1300/1319 BKN010 PROB40 TEMPO 1300/1303 12015G25KT BKN006 BECMG 1311/1313 19012KT 4000 RA PROB40 TEMPO 1312/1318 3000 TSRA SCT010 FEW020CB BKN030 TEMPO 1316/1318 29009KT BECMG 1318/1320 VRB02KT 9999 NSW

Decode

Departure Runways

ID Width Length Bearing (true) Bearing (mag) Surface Threshold Offset Overrun Length
12 148 ft / 45 m 10,803 ft / 3,293 m 118.30° 114.20° Asphalt 488 ft / 149 m 100 ft / 30 m
30 148 ft / 45 m 10,803 ft / 3,293 m 298.33° 294.23° Asphalt 0 ft / 0 m 100 ft / 30 m

LYBE

Details ICAO LYBE (BEG)
Name Belgrade
Region Serbia and Montenegro
Timezone Europe/Belgrade (UTC+1.0)
Stats Elevation 335 ft / 102 m (AMSL)
Location 44.818429° 20.309211°
Runways 1
Magnetic Variation 4.671° E

METAR

LYBE 130130Z 33005KT CAVOK 09/05 Q1015 NOSIG

Decode

TAF

TAF LYBE 122300Z 1300/1324 18009KT 9999 BKN030 TX13/1300Z TN02/1324Z BECMG 1305/1307 32010KT TEMPO 1310/1319 4000 -RA BR BKN010 BKN027 BECMG 1320/1322 21006KT 3000 BR

Decode

Destination Runways

ID Width Length Bearing (true) Bearing (mag) Surface Threshold Offset Overrun Length
12 148 ft / 45 m 11,138 ft / 3,395 m 122.00° 117.33° Asphalt 1,000 ft / 305 m 0 ft / 0 m
30 148 ft / 45 m 11,138 ft / 3,395 m 302.03° 297.36° Asphalt 1,312 ft / 400 m 0 ft / 0 m

Approach Navaids

Runway Type Ident Frequency Range Bearing (true) Bearing (mag) Slope Elevation
12 Localiser YUB 110.30 MHz 25 nm / 46 km 121.92° 117.25° - 315 ft / 96 m (AMSL)
12 Glidescope YUB 110.30 MHz 25 nm / 46 km 121.92° 117.25° 3.00° 305 ft / 93 m (AMSL)
30 Localiser YBE 109.90 MHz 25 nm / 46 km 301.94° 297.27° - 298 ft / 91 m (AMSL)
30 Glidescope YBE 109.90 MHz 25 nm / 46 km 301.94° 297.27° 3.00° 328 ft / 100 m (AMSL)

Popular Alternatives